Terminal Aerodrome Forecast
Issued by NWS Austin/San Antonio, TX

Home | Current Version | Previous Version | Text Only | Print | Product List | Glossary On
Versions: 1 2 3 4 5 6 7 8 9 10 11 12 13 14 15 16 17 18 19 20 21 22 23 24
000
FTUS44 KEWX 221700
TAFSAT
TAF
KSAT 221727Z 2218/2324 18012KT P6SM FEW040
     FM222100 15015G25KT P6SM FEW080
     FM230300 14012KT P6SM SKC
     FM230800 17010KT P6SM BKN018
     FM231500 18012KT P6SM FEW035=

USA.gov is the U.S. government's official web portal to all federal, state and local government web resources and services.